Terminal Aerodrome Forecast
Issued by NWS

Current Version | Previous Version | Text Only | Print | Product List | Glossary Off
Versions: 1 2 3 4 5 6 7 8 9 10 11 12 13 14

670
FTUS41 KPBZ 271724
TAFHLG
TAF
KHLG 271724Z 2718/2818 21010KT P6SM SCT050
     FM280000 18003KT P6SM SCT050=

USA.gov is the U.S. government's official web portal to all federal, state and local government web resources and services.